Time;durP1;ratioP1;P1;durP2;ratioP2;P2;SDS_P1;SDS_P2;PMS_P1;PMS_P2;Temp;Humidity;BMP_temperature;BMP_pressure;BME280_temperature;BME280_humidity;BME280_pressure;Samples;Min_cycle;Max_cycle;Signal;HPM_P1;HPM_P2
2023/01/06 00:00:22;;;;;;;;;;;;;;;12.23;71.46;101709.22;5051562;28;19960;-74
2023/01/06 00:02:47;;;;;;;;;;;;;;;12.23;71.50;101711.94;5049254;28;19956;-75
2023/01/06 00:05:13;;;;;;;;;;;;;;;12.23;71.58;101713.81;5039789;28;19921;-75
2023/01/06 00:07:39;;;;;;;;;;;;;;;12.22;71.55;101706.75;5049656;28;19921;-75
2023/01/06 00:10:05;;;;;;;;;;;;;;;12.21;71.49;101703.22;5037482;28;20280;-75
2023/01/06 00:12:30;;;;;;;;;;;;;;;12.21;71.46;101705.09;5039696;28;20483;-74
2023/01/06 00:14:55;;;;;;;;;;;;;;;12.21;71.51;101696.97;5034242;28;19917;-75
2023/01/06 00:17:20;;;;;;;;;;;;;;;12.21;71.56;101700.50;5034420;28;19933;-76
2023/01/06 00:19:46;;;;;;;;;;;;;;;12.21;71.42;101696.97;5049472;28;19932;-74
2023/01/06 00:22:11;;;;;;;;;;;;;;;12.21;71.42;101689.66;5052916;28;19936;-73
2023/01/06 00:24:36;;;;;;;;;;;;;;;12.21;71.56;101694.25;5050959;28;19921;-74
2023/01/06 00:27:01;;;;;;;;;;;;;;;12.20;71.53;101695.34;5034259;28;19926;-74
2023/01/06 00:29:27;;;;;;;;;;;;;;;12.20;71.69;101698.84;5049104;28;20019;-74
2023/01/06 00:31:52;;;;;;;;;;;;;;;12.19;71.44;101696.38;5052286;28;19920;-74
2023/01/06 00:34:17;;;;;;;;;;;;;;;12.19;71.47;101694.47;5041439;28;19975;-76
2023/01/06 00:36:43;;;;;;;;;;;;;;;12.19;71.55;101691.78;5051862;28;20011;-75
2023/01/06 00:39:10;;;;;;;;;;;;;;;12.19;71.47;101689.06;5050899;28;20279;-75
2023/01/06 00:42:21;;;;;;;;;;;;;;;12.18;71.43;101679.28;5051431;28;19917;-74
2023/01/06 00:44:21;;;;;;;;;;;;;;;12.19;71.65;101675.53;5042065;28;19932;-75
2023/01/06 00:46:46;;;;;;;;;;;;;;;12.19;71.49;101680.13;5033389;28;19921;-75
2023/01/06 00:49:11;;;;;;;;;;;;;;;12.19;71.43;101675.53;5036952;28;20019;-74
2023/01/06 00:51:37;;;;;;;;;;;;;;;12.18;71.26;101682.00;5050414;28;19929;-74
2023/01/06 00:54:03;;;;;;;;;;;;;;;12.18;71.54;101679.28;5048596;28;19922;-74
2023/01/06 00:56:28;;;;;;;;;;;;;;;12.19;71.34;101680.13;5034174;28;19928;-76
2023/01/06 00:58:54;;;;;;;;;;;;;;;12.19;71.54;101680.13;5046352;28;19921;-75
2023/01/06 01:01:19;;;;;;;;;;;;;;;12.18;71.50;101676.59;5044931;28;19926;-75
2023/01/06 01:03:44;;;;;;;;;;;;;;;12.18;71.24;101678.47;5039038;28;19925;-75
2023/01/06 01:06:09;;;;;;;;;;;;;;;12.18;71.22;101679.28;5035948;28;20378;-74
2023/01/06 01:08:35;;;;;;;;;;;;;;;12.18;71.43;101676.59;5044053;28;20033;-75
2023/01/06 01:11:07;;;;;;;;;;;;;;;12.18;71.41;101675.78;5052533;28;19924;-74
2023/01/06 01:13:32;;;;;;;;;;;;;;;12.18;71.35;101668.47;5035495;28;19932;-75
2023/01/06 01:16:08;;;;;;;;;;;;;;;12.18;71.30;101670.34;5046751;28;19921;-75
2023/01/06 01:18:33;;;;;;;;;;;;;;;12.17;71.40;101676.81;5058802;28;19925;-74
2023/01/06 01:20:58;;;;;;;;;;;;;;;12.18;71.33;101667.66;5034222;28;20035;-75
2023/01/06 01:23:24;;;;;;;;;;;;;;;12.17;71.35;101672.25;5042909;28;19931;-74
2023/01/06 01:25:53;;;;;;;;;;;;;;;12.17;71.22;101669.53;5050604;28;19940;-74
2023/01/06 01:28:18;;;;;;;;;;;;;;;12.18;71.28;101673.06;5035828;28;19921;-74
2023/01/06 01:30:43;;;;;;;;;;;;;;;12.17;71.33;101668.69;5052342;28;19921;-75
2023/01/06 01:33:08;;;;;;;;;;;;;;;12.16;71.28;101659.72;5032578;28;19921;-74
2023/01/06 01:35:34;;;;;;;;;;;;;;;12.16;71.33;101656.22;5039801;28;19928;-75
2023/01/06 01:37:59;;;;;;;;;;;;;;;12.15;71.31;101649.97;5040606;28;19925;-75
2023/01/06 01:40:24;;;;;;;;;;;;;;;12.16;71.32;101650.78;5043912;28;20357;-75
2023/01/06 01:42:49;;;;;;;;;;;;;;;12.16;71.30;101650.78;5048266;28;20279;-75
2023/01/06 01:45:17;;;;;;;;;;;;;;;12.15;71.31;101655.38;5047963;28;19921;-73
2023/01/06 01:47:46;;;;;;;;;;;;;;;12.16;71.30;101651.59;5034945;28;20326;-75
2023/01/06 01:50:11;;;;;;;;;;;;;;;12.16;71.29;101653.50;5034767;28;20364;-74
2023/01/06 01:52:37;;;;;;;;;;;;;;;12.15;71.39;101646.44;5046931;28;19921;-74
2023/01/06 01:55:03;;;;;;;;;;;;;;;12.15;71.00;101647.25;5036487;28;19921;-73
2023/01/06 01:57:31;;;;;;;;;;;;;;;12.15;71.22;101643.72;5049457;28;20335;-75
2023/01/06 01:59:57;;;;;;;;;;;;;;;12.13;71.42;101644.78;5046468;28;19995;-74
2023/01/06 02:02:23;;;;;;;;;;;;;;;12.13;71.24;101646.66;5041334;28;19921;-73
2023/01/06 02:04:50;;;;;;;;;;;;;;;12.12;71.27;101648.56;5038694;28;19935;-75
2023/01/06 02:07:15;;;;;;;;;;;;;;;12.13;71.15;101635.81;5043968;28;20008;-75
2023/01/06 02:09:50;;;;;;;;;;;;;;;12.13;71.16;101625.00;5035346;28;20019;-74
2023/01/06 02:12:15;;;;;;;;;;;;;;;12.12;71.36;101620.66;5043792;28;19920;-75
2023/01/06 02:14:40;;;;;;;;;;;;;;;12.11;71.17;101618.97;5039269;28;19932;-75
2023/01/06 02:17:16;;;;;;;;;;;;;;;12.11;71.35;101627.09;5050856;28;19925;-75
2023/01/06 02:19:51;;;;;;;;;;;;;;;12.11;71.27;101619.78;5036352;28;20303;-75
2023/01/06 02:22:43;;;;;;;;;;;;;;;12.11;71.22;101613.56;5042615;28;20296;-75
2023/01/06 02:25:25;;;;;;;;;;;;;;;12.11;71.14;101608.97;5042933;28;20004;-74
2023/01/06 02:28:17;;;;;;;;;;;;;;;12.10;71.25;101615.44;5031580;28;20373;-74
2023/01/06 02:30:42;;;;;;;;;;;;;;;12.10;71.17;101612.75;5039491;28;20334;-75
2023/01/06 02:33:13;;;;;;;;;;;;;;;12.10;71.36;101606.50;5046505;28;19920;-75
2023/01/06 02:35:41;;;;;;;;;;;;;;;12.09;71.24;101605.66;5033635;28;19928;-75
2023/01/06 02:38:25;;;;;;;;;;;;;;;12.10;71.10;101599.19;5043422;28;19931;-75
2023/01/06 02:41:09;;;;;;;;;;;;;;;12.09;71.13;101591.28;5040514;28;19925;-75
2023/01/06 02:43:37;;;;;;;;;;;;;;;12.09;71.16;101591.28;5042457;28;19920;-73
2023/01/06 02:46:19;;;;;;;;;;;;;;;12.09;71.22;101591.28;5050137;28;19925;-75
2023/01/06 02:48:57;;;;;;;;;;;;;;;12.08;71.07;101593.19;5037751;28;19970;-74
2023/01/06 02:51:27;;;;;;;;;;;;;;;12.08;71.20;101587.78;5046710;28;19925;-75
2023/01/06 02:54:11;;;;;;;;;;;;;;;12.08;71.24;101579.66;5041041;28;19972;-75
2023/01/06 02:56:42;;;;;;;;;;;;;;;12.08;71.17;101570.69;5037498;28;19960;-76
2023/01/06 02:59:10;;;;;;;;;;;;;;;12.07;71.08;101564.47;5045184;28;19949;-74
2023/01/06 03:01:40;;;;;;;;;;;;;;;12.07;71.02;101575.31;5045268;28;19956;-75
2023/01/06 03:04:13;;;;;;;;;;;;;;;12.07;71.15;101575.31;5034950;28;19987;-74
2023/01/06 03:06:43;;;;;;;;;;;;;;;12.07;71.06;101559.06;5048036;28;20002;-74
2023/01/06 03:09:10;;;;;;;;;;;;;;;12.07;71.04;101556.34;5044153;28;19968;-75
2023/01/06 03:11:35;;;;;;;;;;;;;;;12.08;71.14;101562.56;5039339;28;19944;-75
2023/01/06 03:14:13;;;;;;;;;;;;;;;12.07;71.04;101555.50;5041195;28;20378;-75
2023/01/06 03:16:38;;;;;;;;;;;;;;;12.07;71.09;101561.75;5044920;28;19967;-75
2023/01/06 03:19:04;;;;;;;;;;;;;;;12.07;70.97;101558.19;5045190;28;19929;-75
2023/01/06 03:21:32;;;;;;;;;;;;;;;12.07;71.09;101558.19;5035109;28;19921;-75
2023/01/06 03:23:57;;;;;;;;;;;;;;;12.06;70.92;101553.84;5043808;28;19966;-74
2023/01/06 03:26:23;;;;;;;;;;;;;;;12.06;70.92;101540.31;5038245;28;19925;-74
2023/01/06 03:28:49;;;;;;;;;;;;;;;12.05;70.98;101534.09;5046653;28;20008;-75
2023/01/06 03:31:20;;;;;;;;;;;;;;;12.05;70.98;101534.09;5051547;28;20063;-75
2023/01/06 03:33:55;;;;;;;;;;;;;;;12.04;71.05;101545.94;5043701;28;19998;-75
2023/01/06 03:36:27;;;;;;;;;;;;;;;12.05;71.18;101546.81;5051851;28;19971;-75
2023/01/06 03:38:52;;;;;;;;;;;;;;;12.05;71.09;101535.97;5042893;28;19929;-75
2023/01/06 03:44:28;;;;;;;;;;;;;;;12.05;70.75;101527.84;5039543;28;20385;-75
2023/01/06 03:47:01;;;;;;;;;;;;;;;12.04;70.83;101532.41;5035552;28;20727;-76
2023/01/06 03:49:32;;;;;;;;;;;;;;;12.04;70.86;101518.06;5036232;28;19921;-73
2023/01/06 03:51:57;;;;;;;;;;;;;;;12.03;70.99;101524.53;5054141;28;19933;-75
2023/01/06 03:54:41;;;;;;;;;;;;;;;12.03;70.75;101535.38;5046864;28;19986;-75
2023/01/06 03:57:14;;;;;;;;;;;;;;;12.02;70.98;101528.28;5038328;28;19921;-75
2023/01/06 03:59:44;;;;;;;;;;;;;;;12.02;71.00;101517.47;5042205;28;20441;-76
2023/01/06 04:02:09;;;;;;;;;;;;;;;12.01;70.77;101511.22;5043949;28;19928;-75
2023/01/06 04:04:35;;;;;;;;;;;;;;;12.02;71.02;101503.91;5039912;28;19924;-75
2023/01/06 04:07:01;;;;;;;;;;;;;;;12.01;70.84;101500.41;5034473;28;19986;-74
2023/01/06 04:09:26;;;;;;;;;;;;;;;12.02;70.90;101502.06;5037395;28;20019;-75
2023/01/06 04:14:35;;;;;;;;;;;;;;;11.99;70.71;101494.38;5036014;28;20012;-75
2023/01/06 04:17:00;;;;;;;;;;;;;;;12.01;70.91;101497.69;5033538;28;20016;-75
2023/01/06 04:19:26;;;;;;;;;;;;;;;12.01;70.73;101497.69;5044186;28;19925;-75
2023/01/06 04:21:51;;;;;;;;;;;;;;;12.01;70.78;101491.44;5044778;28;20250;-75
2023/01/06 04:24:16;;;;;;;;;;;;;;;12.01;70.85;101499.56;5045571;28;19924;-75
2023/01/06 04:26:41;;;;;;;;;;;;;;;12.01;70.71;101492.28;5039663;28;19929;-75
2023/01/06 04:29:07;;;;;;;;;;;;;;;11.99;70.85;101491.66;5046424;28;20004;-75
2023/01/06 04:31:32;;;;;;;;;;;;;;;12.01;70.75;101481.44;5043347;28;20454;-76
2023/01/06 04:33:57;;;;;;;;;;;;;;;12.01;70.54;101488.75;5047954;28;19952;-74
2023/01/06 04:36:23;;;;;;;;;;;;;;;11.99;70.93;101483.56;5047562;28;19925;-75
2023/01/06 04:38:48;;;;;;;;;;;;;;;11.99;70.75;101472.72;5036102;28;19972;-75
2023/01/06 04:41:13;;;;;;;;;;;;;;;12.01;70.91;101480.63;5040389;28;20293;-74
2023/01/06 04:43:38;;;;;;;;;;;;;;;12.01;70.53;101480.63;5041771;28;20016;-75
2023/01/06 04:46:04;;;;;;;;;;;;;;;12.00;70.62;101465.44;5041746;28;19933;-75
2023/01/06 04:48:29;;;;;;;;;;;;;;;11.99;70.75;101463.78;5042033;28;19925;-74
2023/01/06 04:51:01;;;;;;;;;;;;;;;11.99;70.58;101470.00;5046598;28;19987;-74
2023/01/06 04:53:26;;;;;;;;;;;;;;;12.01;70.67;101467.09;5040263;28;20340;-75
2023/01/06 04:55:51;;;;;;;;;;;;;;;11.99;70.59;101469.19;5033308;28;20016;-75
2023/01/06 04:58:17;;;;;;;;;;;;;;;12.00;70.60;101468.16;5042792;28;19991;-74
2023/01/06 05:00:42;;;;;;;;;;;;;;;11.99;70.30;101461.06;5033030;28;19932;-75
2023/01/06 05:03:07;;;;;;;;;;;;;;;12.00;70.72;101458.16;5039366;28;20391;-75
2023/01/06 05:05:32;;;;;;;;;;;;;;;11.99;70.50;101445.66;5040236;28;19932;-75
2023/01/06 05:07:58;;;;;;;;;;;;;;;11.99;70.48;101452.94;5040947;28;20011;-75
2023/01/06 05:10:23;;;;;;;;;;;;;;;11.98;70.59;101446.72;5047912;28;19947;-75
2023/01/06 05:12:48;;;;;;;;;;;;;;;11.98;70.59;101435.88;5046684;28;19925;-75
2023/01/06 05:15:13;;;;;;;;;;;;;;;11.99;70.45;101439.41;5038139;28;20343;-75
2023/01/06 05:17:39;;;;;;;;;;;;;;;11.98;70.57;101446.72;5034180;28;19929;-75
2023/01/06 05:20:04;;;;;;;;;;;;;;;11.99;70.50;101439.41;5044017;28;20322;-75
2023/01/06 05:22:29;;;;;;;;;;;;;;;11.99;70.46;101434.81;5050439;28;19932;-75
2023/01/06 05:24:55;;;;;;;;;;;;;;;11.97;70.45;101450.50;5052610;28;19917;-73
2023/01/06 05:27:20;;;;;;;;;;;;;;;11.98;70.50;101443.19;5032749;28;19921;-74
2023/01/06 05:29:45;;;;;;;;;;;;;;;11.99;70.40;101436.69;5044673;28;20288;-75
2023/01/06 05:32:10;;;;;;;;;;;;;;;11.99;70.42;101439.41;5032434;28;19933;-75
2023/01/06 05:34:36;;;;;;;;;;;;;;;11.97;70.52;101444.22;5032410;28;19925;-75
2023/01/06 05:37:01;;;;;;;;;;;;;;;11.99;70.23;101444.81;5041341;28;19927;-75
2023/01/06 05:39:26;;;;;;;;;;;;;;;11.98;70.43;101433.19;5037265;28;19971;-75
2023/01/06 05:41:51;;;;;;;;;;;;;;;11.97;70.34;101446.94;5039432;28;19925;-76
2023/01/06 05:44:17;;;;;;;;;;;;;;;11.97;70.39;101444.22;5042422;28;20007;-75
2023/01/06 05:46:42;;;;;;;;;;;;;;;11.96;70.33;101454.25;5041230;28;20019;-75
2023/01/06 05:49:08;;;;;;;;;;;;;;;11.97;70.37;101455.06;5037544;28;19928;-75
2023/01/06 05:51:33;;;;;;;;;;;;;;;11.97;70.34;101455.06;5044311;28;19929;-75
2023/01/06 05:53:58;;;;;;;;;;;;;;;11.96;70.48;101465.06;5049334;28;19932;-74
2023/01/06 05:56:24;;;;;;;;;;;;;;;11.96;70.35;101456.13;5051180;28;20365;-75
2023/01/06 05:58:50;;;;;;;;;;;;;;;11.95;70.45;101449.91;5045228;28;19925;-75
2023/01/06 06:01:26;;;;;;;;;;;;;;;11.95;70.36;101447.19;5041736;28;19925;-75
2023/01/06 06:03:52;;;;;;;;;;;;;;;11.95;70.39;101452.59;5038490;28;19956;-75
2023/01/06 06:06:19;;;;;;;;;;;;;;;11.96;70.54;101446.13;5037667;28;19921;-75
2023/01/06 06:08:44;;;;;;;;;;;;;;;11.96;70.46;101450.72;5046820;28;19921;-76
2023/01/06 06:11:11;;;;;;;;;;;;;;;11.96;70.46;101454.25;5040383;28;20284;-75
2023/01/06 06:13:36;;;;;;;;;;;;;;;11.97;70.33;101452.34;5048287;28;19927;-76
2023/01/06 06:16:09;;;;;;;;;;;;;;;11.96;70.44;101443.41;5045319;28;19929;-76
2023/01/06 06:18:41;;;;;;;;;;;;;;;11.96;70.45;101456.94;5046965;28;19921;-76
2023/01/06 06:21:06;;;;;;;;;;;;;;;11.96;70.25;101456.13;5041105;28;20387;-75
2023/01/06 06:23:31;;;;;;;;;;;;;;;11.96;70.61;101465.06;5036799;28;19925;-74
2023/01/06 06:25:57;;;;;;;;;;;;;;;11.95;70.45;101459.91;5039486;28;19929;-75
2023/01/06 06:28:22;;;;;;;;;;;;;;;11.95;70.50;101455.31;5031784;28;19956;-74
2023/01/06 06:30:47;;;;;;;;;;;;;;;11.97;70.52;101460.47;5035395;28;19932;-75
2023/01/06 06:33:13;;;;;;;;;;;;;;;11.95;70.30;101468.84;5044442;28;19929;-75
2023/01/06 06:35:38;;;;;;;;;;;;;;;11.96;70.33;101464.25;5038488;28;20347;-75
2023/01/06 06:38:03;;;;;;;;;;;;;;;11.95;70.51;101476.97;5042952;28;19924;-75
2023/01/06 06:40:28;;;;;;;;;;;;;;;11.95;70.76;101465.31;5048790;28;19972;-74
2023/01/06 06:42:53;;;;;;;;;;;;;;;11.95;70.59;101468.03;5037609;28;19928;-75
2023/01/06 06:45:19;;;;;;;;;;;;;;;11.95;70.63;101470.75;5041029;28;19950;-75
2023/01/06 06:47:44;;;;;;;;;;;;;;;11.96;70.53;101472.38;5046103;28;19927;-74
2023/01/06 06:50:10;;;;;;;;;;;;;;;11.95;70.68;101485.09;5046057;28;19932;-73
2023/01/06 06:52:35;;;;;;;;;;;;;;;11.96;70.66;101475.09;5044386;28;20293;-74
2023/01/06 06:55:01;;;;;;;;;;;;;;;11.95;70.69;101479.69;5047588;28;19920;-73
2023/01/06 06:57:26;;;;;;;;;;;;;;;11.95;70.73;101476.97;5039609;28;20308;-73
2023/01/06 06:59:51;;;;;;;;;;;;;;;11.96;70.84;101475.91;5041484;28;19925;-75
2023/01/06 07:02:16;;;;;;;;;;;;;;;11.96;70.65;101473.19;5035918;28;19971;-75
2023/01/06 07:04:42;;;;;;;;;;;;;;;11.96;70.65;101470.50;5035032;28;19925;-75
2023/01/06 07:07:07;;;;;;;;;;;;;;;11.96;70.91;101470.50;5037887;28;20401;-75
2023/01/06 07:09:32;;;;;;;;;;;;;;;11.96;70.80;101472.38;5036587;28;19971;-75
2023/01/06 07:11:57;;;;;;;;;;;;;;;11.97;70.71;101487.56;5041609;28;19922;-74
2023/01/06 07:14:23;;;;;;;;;;;;;;;11.96;70.82;101489.44;5048021;28;19925;-75
2023/01/06 07:16:48;;;;;;;;;;;;;;;11.97;71.04;101485.69;5041108;28;19921;-74
2023/01/06 07:19:13;;;;;;;;;;;;;;;11.97;70.77;101484.84;5043419;28;20396;-75
2023/01/06 07:21:38;;;;;;;;;;;;;;;11.98;70.85;101483.81;5050164;28;20288;-75
2023/01/06 07:24:04;;;;;;;;;;;;;;;11.96;71.17;101480.50;5053129;28;19920;-75
2023/01/06 07:26:29;;;;;;;;;;;;;;;11.97;70.71;101484.84;5054592;28;19967;-73
2023/01/06 07:28:54;;;;;;;;;;;;;;;11.96;70.72;101478.59;5040674;28;20297;-74
2023/01/06 07:31:19;;;;;;;;;;;;;;;11.96;70.97;101481.31;5039559;28;19972;-74
2023/01/06 07:33:45;;;;;;;;;;;;;;;11.95;70.83;101487.81;5055057;28;19944;-74
2023/01/06 07:36:10;;;;;;;;;;;;;;;11.96;71.08;101502.16;5053355;28;19946;-74
2023/01/06 07:38:35;;;;;;;;;;;;;;;11.96;70.95;101497.56;5052600;28;20003;-74
2023/01/06 07:41:01;;;;;;;;;;;;;;;11.96;70.77;101502.97;5052396;28;19921;-75
2023/01/06 07:43:26;;;;;;;;;;;;;;;11.96;70.93;101508.38;5048872;28;19916;-74
2023/01/06 07:45:51;;;;;;;;;;;;;;;11.95;71.13;101512.16;5063266;28;19931;-74
2023/01/06 07:48:16;;;;;;;;;;;;;;;11.96;71.02;101510.28;5051509;28;19927;-75
2023/01/06 07:50:42;;;;;;;;;;;;;;;11.95;71.07;101509.47;5042485;28;20412;-78
2023/01/06 07:53:07;;;;;;;;;;;;;;;11.95;71.00;101519.47;5038838;28;19921;-73
2023/01/06 07:55:32;;;;;;;;;;;;;;;11.94;71.15;101513.22;5033652;28;19933;-74
2023/01/06 07:57:58;;;;;;;;;;;;;;;11.93;71.20;101522.41;5042591;28;19929;-75
2023/01/06 08:00:23;;;;;;;;;;;;;;;11.94;71.15;101523.22;5042200;28;19999;-74
2023/01/06 08:02:48;;;;;;;;;;;;;;;11.94;70.97;101534.88;5040740;28;20020;-74
2023/01/06 08:05:14;;;;;;;;;;;;;;;11.93;70.98;101549.47;5043184;28;19931;-75
2023/01/06 08:07:39;;;;;;;;;;;;;;;11.93;70.94;101551.38;5036148;28;19928;-75
2023/01/06 08:10:06;;;;;;;;;;;;;;;11.95;71.09;101562.78;5040517;28;19979;-74
2023/01/06 08:12:31;;;;;;;;;;;;;;;11.94;71.12;101553.81;5036133;28;19921;-75
2023/01/06 08:14:56;;;;;;;;;;;;;;;11.94;71.18;101556.53;5036938;28;19948;-75
2023/01/06 08:17:21;;;;;;;;;;;;;;;11.95;71.00;101560.09;5041528;28;19929;-76
2023/01/06 08:19:47;;;;;;;;;;;;;;;11.94;70.91;101559.25;5045278;28;20407;-74
2023/01/06 08:22:12;;;;;;;;;;;;;;;11.96;71.05;101564.44;5043480;28;20000;-75
2023/01/06 08:24:37;;;;;;;;;;;;;;;11.96;71.04;101564.44;5048505;28;20059;-75
2023/01/06 08:27:02;;;;;;;;;;;;;;;11.96;71.21;101559.84;5040850;28;19956;-74
2023/01/06 08:29:28;;;;;;;;;;;;;;;11.97;71.07;101561.50;5038765;28;19921;-76
2023/01/06 08:31:53;;;;;;;;;;;;;;;11.96;71.11;101559.84;5040646;28;20373;-74
2023/01/06 08:34:18;;;;;;;;;;;;;;;11.97;70.97;101568.78;5033108;28;19925;-74
2023/01/06 08:36:44;;;;;;;;;;;;;;;11.96;71.27;101570.66;5037295;28;19963;-77
2023/01/06 08:39:10;;;;;;;;;;;;;;;11.97;71.10;101569.63;5041221;28;20277;-76
2023/01/06 08:41:36;;;;;;;;;;;;;;;11.97;71.06;101580.47;5046855;28;20789;-76
2023/01/06 08:44:01;;;;;;;;;;;;;;;11.97;71.10;101583.16;5047762;28;19925;-76
2023/01/06 08:46:26;;;;;;;;;;;;;;;11.97;71.17;101594.00;5034857;28;19928;-77
2023/01/06 08:48:52;;;;;;;;;;;;;;;11.98;71.26;101592.94;5043373;28;19928;-76
2023/01/06 08:51:19;;;;;;;;;;;;;;;11.97;71.06;101598.56;5042947;28;19925;-77
2023/01/06 08:53:46;;;;;;;;;;;;;;;11.97;71.21;101609.38;5041584;28;19948;-76
2023/01/06 08:56:19;;;;;;;;;;;;;;;11.97;71.09;101607.53;5032363;28;19932;-76
2023/01/06 08:58:49;;;;;;;;;;;;;;;11.97;71.10;101612.94;5035992;28;19927;-76
2023/01/06 09:01:18;;;;;;;;;;;;;;;11.98;70.94;101617.28;5031298;28;19942;-77
2023/01/06 09:03:43;;;;;;;;;;;;;;;11.98;71.11;101606.47;5046329;28;19924;-76
2023/01/06 09:06:09;;;;;;;;;;;;;;;11.99;71.29;101604.56;5037488;28;19923;-76
2023/01/06 09:08:34;;;;;;;;;;;;;;;11.98;71.06;101605.66;5030965;28;19921;-75
2023/01/06 09:11:03;;;;;;;;;;;;;;;11.98;71.26;101606.47;5035903;28;19926;-77
2023/01/06 09:13:29;;;;;;;;;;;;;;;11.98;71.08;101611.06;5037675;28;20405;-77
2023/01/06 09:15:55;;;;;;;;;;;;;;;11.99;71.20;101610.81;5031762;28;20383;-77
2023/01/06 09:18:20;;;;;;;;;;;;;;;11.99;71.17;101623.53;5040710;28;19929;-76
2023/01/06 09:20:45;;;;;;;;;;;;;;;11.98;70.94;101630.84;5046600;28;19925;-76
2023/01/06 09:23:11;;;;;;;;;;;;;;;11.99;71.20;101637.06;5047145;28;20265;-75
2023/01/06 09:25:36;;;;;;;;;;;;;;;11.98;71.11;101638.97;5033667;28;20774;-76
2023/01/06 09:28:01;;;;;;;;;;;;;;;11.99;71.16;101629.75;5030940;28;19972;-74
2023/01/06 09:30:26;;;;;;;;;;;;;;;12.00;71.42;101647.69;5030149;28;20718;-74
2023/01/06 09:32:52;;;;;;;;;;;;;;;11.99;71.15;101651.44;5033334;28;20354;-74
2023/01/06 09:35:17;;;;;;;;;;;;;;;12.01;71.20;101645.78;5031395;28;19927;-74
2023/01/06 09:37:42;;;;;;;;;;;;;;;12.00;71.28;101658.50;5048436;28;20378;-76
2023/01/06 09:40:09;;;;;;;;;;;;;;;12.01;71.46;101660.16;5035854;28;19921;-76
2023/01/06 09:42:43;;;;;;;;;;;;;;;12.01;71.20;101670.97;5039040;28;19921;-73
2023/01/06 09:45:17;;;;;;;;;;;;;;;12.01;71.20;101662.84;5040543;28;19937;-76
2023/01/06 09:47:47;;;;;;;;;;;;;;;12.02;71.12;101669.09;5047918;28;20425;-74
2023/01/06 09:50:18;;;;;;;;;;;;;;;12.01;71.21;101662.84;5038559;28;19921;-75
2023/01/06 09:52:56;;;;;;;;;;;;;;;12.03;71.14;101665.34;5033290;28;20011;-75
2023/01/06 09:55:21;;;;;;;;;;;;;;;12.03;71.08;101660.75;5046150;28;19920;-76
2023/01/06 09:57:59;;;;;;;;;;;;;;;12.02;71.27;101672.66;5039262;28;19928;-75
2023/01/06 10:00:24;;;;;;;;;;;;;;;12.03;71.12;101670.75;5032105;28;20392;-75
2023/01/06 10:02:50;;;;;;;;;;;;;;;12.02;70.99;101672.66;5038325;28;19917;-75
2023/01/06 10:05:33;;;;;;;;;;;;;;;12.03;70.98;101678.88;5046304;28;19931;-74
2023/01/06 10:08:05;;;;;;;;;;;;;;;12.03;71.14;101679.72;5036448;28;20023;-74
2023/01/06 10:10:39;;;;;;;;;;;;;;;12.03;71.15;101687.84;5048175;28;20061;-75
2023/01/06 10:13:23;;;;;;;;;;;;;;;12.03;71.04;101682.41;5049281;28;19920;-75
2023/01/06 10:16:07;;;;;;;;;;;;;;;12.05;71.19;101698.44;5042498;28;19920;-75
2023/01/06 10:18:44;;;;;;;;;;;;;;;12.04;70.99;101685.94;5036425;28;20819;-75
2023/01/06 10:21:28;;;;;;;;;;;;;;;12.04;70.92;101688.66;5044709;28;20430;-75
2023/01/06 10:24:05;;;;;;;;;;;;;;;12.05;71.20;101684.91;5034847;28;19932;-75
2023/01/06 10:26:36;;;;;;;;;;;;;;;12.05;70.96;101684.91;5034786;28;19934;-74
2023/01/06 10:29:27;;;;;;;;;;;;;;;12.05;71.10;101684.91;5040868;28;19921;-70
2023/01/06 10:31:53;;;;;;;;;;;;;;;12.05;71.01;101696.56;5049012;28;19925;-76
2023/01/06 10:34:20;;;;;;;;;;;;;;;12.06;71.05;101686.53;5047264;28;19924;-74
2023/01/06 10:36:48;;;;;;;;;;;;;;;12.07;70.93;101683.63;5040280;28;19933;-78
2023/01/06 10:39:19;;;;;;;;;;;;;;;12.07;70.99;101686.34;5034334;28;20016;-75
2023/01/06 10:41:51;;;;;;;;;;;;;;;12.10;71.17;101685.88;5030182;28;19925;-75
2023/01/06 10:44:16;;;;;;;;;;;;;;;12.11;71.07;101686.69;5048668;28;19963;-76
2023/01/06 10:46:44;;;;;;;;;;;;;;;12.11;71.13;101671.25;5039249;28;19956;-75
2023/01/06 10:49:14;;;;;;;;;;;;;;;12.15;70.93;101670.81;5055801;28;19925;-77
2023/01/06 10:51:47;;;;;;;;;;;;;;;12.15;70.94;101670.81;5035815;28;20013;-75
2023/01/06 10:54:16;;;;;;;;;;;;;;;12.15;71.25;101677.06;5047988;28;20003;-75
2023/01/06 10:56:44;;;;;;;;;;;;;;;12.15;71.21;101671.63;5051558;28;19931;-74
2023/01/06 10:59:10;;;;;;;;;;;;;;;12.17;70.97;101674.09;5053169;28;19952;-76
2023/01/06 11:01:47;;;;;;;;;;;;;;;12.18;70.92;101682.00;5059485;28;20615;-77
2023/01/06 11:04:14;;;;;;;;;;;;;;;12.18;71.24;101683.91;5043442;28;19925;-75
2023/01/06 11:06:44;;;;;;;;;;;;;;;12.19;70.89;101689.06;5045930;28;19999;-75
2023/01/06 11:09:29;;;;;;;;;;;;;;;12.21;70.85;101683.44;5049343;28;19928;-76
2023/01/06 11:11:55;;;;;;;;;;;;;;;12.22;71.08;101680.50;5045581;28;19921;-75
2023/01/06 11:14:24;;;;;;;;;;;;;;;12.23;70.93;101684.03;5047090;28;19921;-76
2023/01/06 11:17:12;;;;;;;;;;;;;;;12.21;70.83;101678.81;5047455;28;20032;-76
2023/01/06 11:19:39;;;;;;;;;;;;;;;12.23;70.85;101676.72;5041823;28;20449;-75
2023/01/06 11:22:05;;;;;;;;;;;;;;;12.24;70.79;101682.97;5049306;28;19925;-76
2023/01/06 11:24:31;;;;;;;;;;;;;;;12.23;70.93;101679.44;5047285;28;20364;-77
2023/01/06 11:27:13;;;;;;;;;;;;;;;12.24;70.68;101677.53;5046134;28;19932;-75
2023/01/06 11:29:38;;;;;;;;;;;;;;;12.25;70.73;101671.09;5048658;28;20254;-74
2023/01/06 11:32:19;;;;;;;;;;;;;;;12.24;70.60;101672.94;5041751;28;20491;-75
2023/01/06 11:34:53;;;;;;;;;;;;;;;12.25;70.73;101668.38;5048533;28;19920;-75
2023/01/06 11:37:29;;;;;;;;;;;;;;;12.26;70.67;101659.19;5043403;28;20020;-77
2023/01/06 11:39:54;;;;;;;;;;;;;;;12.27;70.34;101668.94;5050988;28;19925;-75
2023/01/06 11:42:20;;;;;;;;;;;;;;;12.27;70.78;101661.66;5043426;28;20020;-76
2023/01/06 11:44:45;;;;;;;;;;;;;;;12.27;70.73;101672.50;5049128;28;19939;-76
2023/01/06 11:47:12;;;;;;;;;;;;;;;12.29;70.64;101664.94;5045573;28;19920;-75
2023/01/06 11:49:45;;;;;;;;;;;;;;;12.31;70.53;101662.84;5043553;28;19928;-75
2023/01/06 11:52:16;;;;;;;;;;;;;;;12.31;70.58;101662.03;5046270;28;19975;-75
2023/01/06 11:54:41;;;;;;;;;;;;;;;12.32;70.68;101667.22;5048596;28;19921;-75
2023/01/06 11:57:17;;;;;;;;;;;;;;;12.34;70.57;101656.13;5050050;28;19925;-75
2023/01/06 12:00:01;;;;;;;;;;;;;;;12.34;70.41;101656.94;5050001;28;19960;-75
2023/01/06 12:02:32;;;;;;;;;;;;;;;12.33;70.41;101651.78;5049105;28;19916;-76
2023/01/06 12:04:58;;;;;;;;;;;;;;;12.34;70.61;101643.41;5041084;28;19935;-75
2023/01/06 12:07:30;;;;;;;;;;;;;;;12.35;70.51;101644.25;5048180;28;19929;-76
2023/01/06 12:09:58;;;;;;;;;;;;;;;12.38;70.46;101651.09;5047670;28;20070;-77
2023/01/06 12:12:26;;;;;;;;;;;;;;;12.37;70.34;101642.13;5045547;28;19971;-77
2023/01/06 12:14:51;;;;;;;;;;;;;;;12.39;70.26;101637.28;5044319;28;19960;-81
2023/01/06 12:17:36;;;;;;;;;;;;;;;12.40;70.44;101636.25;5047606;28;19959;-81
2023/01/06 12:20:04;;;;;;;;;;;;;;;12.41;70.49;101631.66;5038957;28;19925;-80
2023/01/06 12:22:29;;;;;;;;;;;;;;;12.41;70.41;101629.75;5031936;28;19967;-79
2023/01/06 12:24:56;;;;;;;;;;;;;;;12.41;70.54;101628.94;5040207;28;19924;-80
2023/01/06 12:27:29;;;;;;;;;;;;;;;12.42;70.46;101627.88;5041942;28;19932;-79
2023/01/06 12:29:57;;;;;;;;;;;;;;;12.44;70.40;101633.88;5043128;28;19925;-81
2023/01/06 12:32:26;;;;;;;;;;;;;;;12.44;70.55;101636.59;5040614;28;19971;-80
2023/01/06 12:34:52;;;;;;;;;;;;;;;12.45;70.52;101640.97;5039511;28;19925;-80
2023/01/06 12:37:38;;;;;;;;;;;;;;;12.45;70.53;101640.97;5032870;28;19974;-80
2023/01/06 12:40:08;;;;;;;;;;;;;;;12.46;70.34;101638.00;5038660;28;20023;-79
2023/01/06 12:42:42;;;;;;;;;;;;;;;12.47;70.35;101652.38;5031093;28;19925;-80
2023/01/06 12:45:16;;;;;;;;;;;;;;;12.46;70.30;101648.03;5032874;28;19967;-81